Time;durP1;ratioP1;P1;durP2;ratioP2;P2;SDS_P1;SDS_P2;PMS_P1;PMS_P2;Temp;Humidity;BMP_temperature;BMP_pressure;BME280_temperature;BME280_humidity;BME280_pressure;Samples;Min_cycle;Max_cycle;Signal;HPM_P1;HPM_P2
2021/04/02 00:05:20;;;;;;;5.07;2.90;;;;;;;16.22;57.58;95582.69;4980187;28;20223;-85
2021/04/02 00:11:55;;;;;;;4.20;2.70;;;;;;;16.11;57.32;95583.38;4975274;28;21003;-86
2021/04/02 00:38:23;;;;;;;5.33;2.73;;;;;;;16.00;57.24;95585.84;4827363;29;20232;-83
2021/04/02 01:01:56;;;;;;;5.57;3.03;;;;;;;15.65;57.58;95573.28;4901399;29;20241;-86
2021/04/02 01:34:42;;;;;;;5.67;3.90;;;;;;;15.45;58.05;95586.31;4864742;29;20234;-86
2021/04/02 01:47:49;;;;;;;7.13;4.30;;;;;;;15.24;58.40;95590.97;4909326;28;20786;-85
2021/04/02 01:57:32;;;;;;;;;;;;;;;;;;;;;
2021/04/02 02:20:53;;;;;;;;;;;;;;;;;;;;;
2021/04/02 03:08:04;;;;;;;13.37;7.20;;;;;;;14.32;59.55;95602.25;4931727;29;20256;-87
2021/04/02 03:45:43;;;;;;;15.77;9.90;;;;;;;13.99;60.13;95613.41;5007788;28;20235;-87
2021/04/02 03:48:56;;;;;;;14.43;9.83;;;;;;;14.01;59.72;95613.19;5036097;28;20228;-84
2021/04/02 03:58:30;;;;;;;15.60;10.73;;;;;;;14.01;59.89;95610.63;4950137;28;20231;-85
2021/04/02 04:01:36;;;;;;;12.10;10.07;;;;;;;13.96;59.49;95621.56;4973428;28;20241;-86
2021/04/02 04:27:07;;;;;;;14.17;9.90;;;;;;;13.63;60.18;95642.16;4948786;28;20239;-86
2021/04/02 05:19:58;;;;;;;13.53;10.33;;;;;;;13.39;59.93;95663.34;4949263;28;20656;-82
2021/04/02 05:22:39;;;;;;;14.87;10.63;;;;;;;13.41;59.67;95662.19;4979259;28;20676;-83
2021/04/02 05:25:12;;;;;;;14.93;10.57;;;;;;;13.45;59.29;95667.78;4977441;28;20274;-84
2021/04/02 05:27:38;;;;;;;16.53;10.67;;;;;;;13.41;59.71;95671.72;5018551;28;20238;-82
2021/04/02 05:30:14;;;;;;;15.57;10.87;;;;;;;13.38;59.89;95672.09;5024033;28;20308;-82
2021/04/02 05:32:43;;;;;;;14.23;10.67;;;;;;;13.43;59.67;95672.34;5027103;28;20201;-83
2021/04/02 05:35:34;;;;;;;15.30;11.30;;;;;;;13.47;59.94;95670.94;5031275;28;20221;-83
2021/04/02 05:38:19;;;;;;;15.83;11.77;;;;;;;13.48;59.45;95673.34;5051680;22;20248;-84
2021/04/02 05:47:09;;;;;;;20.23;13.20;;;;;;;13.06;61.18;95679.47;4954016;28;20290;-81
2021/04/02 05:49:51;;;;;;;21.07;13.87;;;;;;;13.16;60.92;95675.75;5051899;28;20232;-82
2021/04/02 05:52:48;;;;;;;16.77;13.87;;;;;;;13.24;60.54;95685.97;5054845;28;20240;-84
2021/04/02 05:55:46;;;;;;;21.83;13.63;;;;;;;13.24;60.67;95684.16;5059313;28;20304;-82
2021/04/02 05:58:53;;;;;;;23.03;14.60;;;;;;;13.43;60.51;95691.25;5060601;28;20258;-84
2021/04/02 06:04:19;;;;;;;20.23;13.93;;;;;;;13.68;59.79;95688.94;5053585;28;20223;-84
2021/04/02 06:06:57;;;;;;;25.57;14.67;;;;;;;13.72;59.63;95699.72;5064845;28;20318;-83
2021/04/02 06:22:15;;;;;;;25.30;19.33;;;;;;;13.97;58.17;95705.19;4962516;28;20234;-83
2021/04/02 06:34:59;;;;;;;25.17;20.57;;;;;;;14.21;57.07;95709.84;4974478;28;20274;-85
2021/04/02 06:37:59;;;;;;;22.47;20.07;;;;;;;14.20;56.81;95705.66;5059372;28;20255;-85
2021/04/02 06:44:49;;;;;;;27.70;21.47;;;;;;;14.07;57.17;95708.19;4987397;28;20233;-84
2021/04/02 06:47:53;;;;;;;24.77;20.43;;;;;;;14.06;57.06;95709.97;5018106;22;20324;-85
2021/04/02 07:41:07;;;;;;;33.50;26.97;;;;;;;13.42;58.33;95731.03;4834667;29;20808;-86
2021/04/02 07:43:48;;;;;;;30.17;25.27;;;;;;;13.49;57.86;95729.25;4943717;28;20232;-86
2021/04/02 07:46:17;;;;;;;30.53;25.77;;;;;;;13.65;58.01;95735.13;4951448;28;20229;-84
2021/04/02 07:49:07;;;;;;;32.60;26.40;;;;;;;13.69;57.99;95738.91;4957707;28;20238;-83
2021/04/02 07:51:52;;;;;;;31.90;25.37;;;;;;;13.73;58.11;95734.94;4968877;28;20231;-85
2021/04/02 07:54:32;;;;;;;32.60;25.17;;;;;;;13.63;58.06;95731.94;4960817;28;20299;-83
2021/04/02 07:57:18;;;;;;;28.57;24.87;;;;;;;13.82;57.84;95726.03;5003323;28;20322;-83
2021/04/02 07:59:45;;;;;;;40.60;34.10;;;;;;;13.62;57.46;95727.75;5011310;28;20206;-84
2021/04/02 08:02:16;;;;;;;55.43;45.97;;;;;;;13.78;57.51;95730.81;5012666;28;20238;-84
2021/04/02 08:04:56;;;;;;;31.43;27.63;;;;;;;13.93;57.10;95733.25;5000469;28;20316;-83
2021/04/02 08:07:33;;;;;;;27.67;23.33;;;;;;;13.91;57.02;95739.59;5025778;28;20345;-83
2021/04/02 08:10:09;;;;;;;28.60;23.30;;;;;;;13.92;57.13;95742.00;5031690;28;20259;-84
2021/04/02 08:15:43;;;;;;;24.43;21.53;;;;;;;13.91;56.68;95748.16;5030439;28;20228;-84
2021/04/02 08:18:29;;;;;;;25.83;21.00;;;;;;;14.09;56.31;95745.03;5020375;28;20233;-84
2021/04/02 08:21:13;;;;;;;23.20;20.73;;;;;;;14.14;55.87;95738.31;5019956;28;20256;-85
2021/04/02 08:23:40;;;;;;;23.37;20.87;;;;;;;14.25;55.54;95736.94;5031081;28;20190;-84
2021/04/02 09:02:22;;;;;;;;;;;;;;;;;;;;;
2021/04/02 09:28:21;;;;;;;25.00;21.47;;;;;;;14.10;55.52;95733.69;4830746;29;20232;-86
2021/04/02 09:34:34;;;;;;;27.73;22.43;;;;;;;14.26;55.40;95730.75;4998246;28;20294;-86
2021/04/02 09:40:09;;;;;;;;;;;;;;;;;;;;;
2021/04/02 09:42:52;;;;;;;23.57;20.90;;;;;;;14.57;54.18;95716.50;5009802;28;20226;-82
2021/04/02 09:45:42;;;;;;;23.90;21.13;;;;;;;14.67;54.03;95722.88;5019552;28;20232;-86
2021/04/02 09:48:49;;;;;;;28.30;21.57;;;;;;;14.54;54.03;95717.69;5043281;28;20734;-84
2021/04/02 09:51:33;;;;;;;24.83;20.40;;;;;;;14.72;54.03;95717.13;5013797;28;20236;-84
2021/04/02 09:54:09;;;;;;;55.50;46.97;;;;;;;14.59;54.03;95717.91;5007027;28;20222;-84
2021/04/02 09:57:28;;;;;;;25.57;22.17;;;;;;;14.57;54.39;95727.69;5019343;28;20252;-83
2021/04/02 10:00:10;;;;;;;24.00;20.77;;;;;;;14.57;53.65;95719.09;4968006;28;20287;-84
2021/04/02 10:02:48;;;;;;;26.03;20.87;;;;;;;14.26;53.72;95720.41;4973236;28;20208;-83
2021/04/02 10:05:27;;;;;;;22.43;19.93;;;;;;;14.13;54.71;95725.53;5032249;28;20202;-83
2021/04/02 10:07:59;;;;;;;22.63;19.50;;;;;;;14.16;55.12;95713.00;5005351;28;20257;-84
2021/04/02 10:13:22;;;;;;;27.83;20.77;;;;;;;14.47;54.13;95716.88;5018413;28;20230;-83
2021/04/02 10:19:08;;;;;;;;;;;;;;;;;;;;;
2021/04/02 10:21:38;;;;;;;23.40;21.00;;;;;;;13.94;55.00;95700.41;5033081;28;20233;-85
2021/04/02 10:24:24;;;;;;;23.40;20.90;;;;;;;14.38;54.64;95690.34;5023006;28;20229;-86
2021/04/02 10:26:58;;;;;;;23.10;20.37;;;;;;;14.49;53.48;95691.56;5033499;28;20225;-86
2021/04/02 10:29:24;;;;;;;21.27;19.03;;;;;;;14.99;53.84;95699.78;5021192;28;20206;-87
2021/04/02 10:31:52;;;;;;;25.07;21.37;;;;;;;14.92;52.18;95701.56;4986991;28;20242;-85
2021/04/02 10:34:43;;;;;;;24.17;21.60;;;;;;;15.03;52.25;95693.16;5014109;28;20254;-86
2021/04/02 10:37:41;;;;;;;24.77;21.83;;;;;;;15.44;51.53;95685.91;5014180;28;20226;-85
2021/04/02 10:40:21;;;;;;;21.37;18.57;;;;;;;15.58;51.51;95689.31;4965374;28;20237;-86
2021/04/02 10:43:18;;;;;;;23.40;20.57;;;;;;;15.29;50.78;95679.38;5014469;28;20229;-85
2021/04/02 10:45:56;;;;;;;28.27;20.27;;;;;;;15.40;51.55;95694.28;5006391;28;20300;-86
2021/04/02 10:48:30;;;;;;;21.40;19.10;;;;;;;15.40;50.58;95687.31;5010557;28;20321;-85
2021/04/02 10:51:31;;;;;;;;;;;;;;;;;;;;;
2021/04/02 10:54:25;;;;;;;20.30;18.20;;;;;;;15.74;50.57;95685.47;5008468;28;20226;-85
2021/04/02 10:57:03;;;;;;;22.23;18.90;;;;;;;15.42;50.30;95687.13;5022836;28;20233;-86
2021/04/02 11:00:10;;;;;;;24.07;18.80;;;;;;;15.57;50.59;95690.31;5028196;28;20306;-85
2021/04/02 11:08:47;;;;;;;20.50;18.17;;;;;;;15.89;49.60;95670.41;4888406;29;20404;-86
2021/04/02 11:14:59;;;;;;;41.60;35.10;;;;;;;16.09;48.85;95657.31;4927503;28;20766;-86
2021/04/02 11:17:26;;;;;;;36.27;28.80;;;;;;;16.23;53.43;95667.41;4951783;28;20254;-86
2021/04/02 11:20:16;;;;;;;24.73;19.50;;;;;;;16.60;52.23;95664.97;5024746;28;20286;-87
2021/04/02 11:22:44;;;;;;;24.17;18.00;;;;;;;17.03;48.25;95665.03;5014950;28;20217;-86
2021/04/02 11:25:28;;;;;;;21.33;17.48;;;;;;;17.18;47.23;95657.69;5025387;28;20229;-87
2021/04/02 11:28:10;;;;;;;20.95;16.83;;;;;;;17.59;47.94;95651.84;5028803;28;20731;-87
2021/04/02 11:30:36;;;;;;;18.08;16.25;;;;;;;17.75;46.05;95658.28;5008690;28;20253;-87
2021/04/02 11:33:02;;;;;;;17.30;15.60;;;;;;;17.82;44.96;95656.41;5026031;28;20280;-87
2021/04/02 11:35:28;;;;;;;18.05;15.05;;;;;;;17.97;45.50;95650.78;5030739;28;20202;-88
2021/04/02 11:37:54;;;;;;;17.35;15.55;;;;;;;18.07;44.98;95653.69;5029739;28;20697;-87
2021/04/02 11:40:21;;;;;;;18.10;15.23;;;;;;;17.91;45.84;95647.25;5028924;28;20237;-88
2021/04/02 11:42:50;;;;;;;17.55;14.30;;;;;;;17.50;45.78;95652.34;5028182;28;20271;-88
2021/04/02 11:45:16;;;;;;;14.18;12.77;;;;;;;17.46;46.80;95656.41;5009596;28;20219;-88
2021/04/02 11:48:06;;;;;;;15.38;13.77;;;;;;;17.63;46.26;95648.78;4996805;28;20222;-87
2021/04/02 11:50:32;;;;;;;16.45;14.00;;;;;;;17.72;44.83;95647.50;5027963;28;20209;-88
2021/04/02 11:52:59;;;;;;;14.10;12.65;;;;;;;17.77;44.94;95640.63;5026676;28;20721;-88
2021/04/02 11:55:39;;;;;;;23.23;12.90;;;;;;;17.63;43.88;95636.56;5019023;28;20311;-88
2021/04/02 11:58:28;;;;;;;15.13;13.52;;;;;;;17.70;45.63;95637.34;5013450;28;20225;-88
2021/04/02 12:01:12;;;;;;;;;;;;;;;;;;;;;
2021/04/02 12:04:15;;;;;;;11.38;10.27;;;;;;;17.98;45.73;95633.34;5015218;28;20224;-85
2021/04/02 12:06:54;;;;;;;16.83;15.05;;;;;;;17.88;44.23;95626.09;4995308;28;20230;-85
2021/04/02 12:09:44;;;;;;;15.43;12.38;;;;;;;17.89;43.74;95625.88;5024424;28;20236;-85
2021/04/02 12:12:14;;;;;;;14.45;11.75;;;;;;;17.73;45.13;95623.84;5016643;28;20263;-83
2021/04/02 12:15:02;;;;;;;16.92;14.73;;;;;;;17.54;44.44;95615.22;5029647;28;20212;-86
2021/04/02 12:17:28;;;;;;;20.60;18.20;;;;;;;17.46;45.57;95622.56;5029073;28;20241;-85
2021/04/02 12:19:54;;;;;;;16.13;14.43;;;;;;;17.38;45.50;95626.25;5031996;28;20320;-87
2021/04/02 12:22:20;;;;;;;15.80;14.05;;;;;;;17.08;45.67;95631.38;5032758;28;20295;-85
2021/04/02 12:24:46;;;;;;;16.23;14.27;;;;;;;17.02;45.55;95627.03;5032176;28;20221;-84
2021/04/02 12:27:13;;;;;;;15.73;14.13;;;;;;;17.26;45.57;95620.97;5032529;28;20229;-83
2021/04/02 12:29:39;;;;;;;17.40;13.43;;;;;;;17.41;44.33;95618.00;5031578;28;20190;-83
2021/04/02 12:32:06;;;;;;;15.00;13.52;;;;;;;17.45;44.49;95611.34;5030907;28;20198;-86
2021/04/02 12:34:32;;;;;;;16.10;14.07;;;;;;;17.40;44.16;95605.19;5031705;28;20824;-85
2021/04/02 12:36:58;;;;;;;13.73;12.10;;;;;;;17.49;44.56;95614.31;5031321;28;20317;-86
2021/04/02 12:39:27;;;;;;;15.75;14.15;;;;;;;17.51;44.54;95601.88;5030954;28;20257;-85
2021/04/02 12:41:53;;;;;;;16.15;13.65;;;;;;;17.48;44.38;95603.13;5030619;28;20274;-84
2021/04/02 12:44:26;;;;;;;14.45;12.95;;;;;;;17.66;44.02;95599.72;5032580;28;20695;-84
2021/04/02 13:02:58;;;;;;;15.40;13.90;;;;;;;18.10;41.70;95579.44;4893622;28;20229;-85
2021/04/02 13:12:39;;;;;;;13.23;11.82;;;;;;;18.16;41.85;95568.16;4950229;28;20228;-84
2021/04/02 13:15:23;;;;;;;15.00;13.18;;;;;;;18.41;41.51;95567.97;5007569;28;20241;-85
2021/04/02 13:39:02;;;;;;;11.75;10.68;;;;;;;18.72;38.76;95536.34;4816587;29;20227;-90
2021/04/02 13:41:28;;;;;;;14.88;10.23;;;;;;;18.78;39.22;95535.44;4807279;29;20506;-81
2021/04/02 13:43:54;;;;;;;11.38;10.20;;;;;;;18.71;39.18;95529.56;4982456;28;20238;-82
2021/04/02 13:46:19;;;;;;;13.25;11.95;;;;;;;18.44;38.92;95524.00;5018474;28;20221;-82
2021/04/02 13:48:45;;;;;;;11.57;10.40;;;;;;;18.34;39.83;95530.78;5029549;28;20222;-83
2021/04/02 13:51:11;;;;;;;12.32;11.05;;;;;;;18.16;40.43;95529.84;5029740;28;20226;-81
2021/04/02 13:53:39;;;;;;;13.57;10.75;;;;;;;18.10;39.92;95517.72;5029845;28;20222;-81
2021/04/02 13:56:06;;;;;;;12.32;11.10;;;;;;;17.94;39.15;95520.97;5030487;28;20197;-83
2021/04/02 13:58:33;;;;;;;11.27;10.18;;;;;;;18.05;39.98;95516.81;5029720;28;20721;-84
2021/04/02 14:00:59;;;;;;;11.25;10.15;;;;;;;17.99;39.94;95517.69;5029481;28;20241;-84
2021/04/02 14:03:25;;;;;;;10.90;9.75;;;;;;;17.94;40.21;95508.75;5030213;28;20229;-83
2021/04/02 14:05:51;;;;;;;14.90;13.27;;;;;;;18.17;39.20;95507.97;5029985;28;20307;-83
2021/04/02 14:08:17;;;;;;;22.85;20.55;;;;;;;18.38;39.52;95513.66;5030212;28;20317;-83
2021/04/02 14:10:43;;;;;;;10.80;9.75;;;;;;;18.54;37.49;95503.34;5030386;28;20226;-83
2021/04/02 14:13:11;;;;;;;9.80;8.90;;;;;;;18.67;37.82;95504.13;5031737;28;20230;-78
2021/04/02 14:15:39;;;;;;;9.45;8.55;;;;;;;18.92;37.69;95494.25;5033698;28;20712;-83
2021/04/02 14:18:06;;;;;;;10.40;9.40;;;;;;;18.97;36.91;95496.97;5033778;28;20226;-82
2021/04/02 14:20:34;;;;;;;10.88;9.07;;;;;;;19.01;37.26;95489.47;5034071;28;20202;-82
2021/04/02 14:23:06;;;;;;;10.07;9.15;;;;;;;18.87;36.66;95489.72;5032791;28;20210;-83
2021/04/02 14:25:32;;;;;;;9.65;8.73;;;;;;;18.61;37.21;95498.03;5033682;28;20877;-83
2021/04/02 14:27:59;;;;;;;9.20;8.20;;;;;;;18.69;36.42;95489.84;5033551;28;20253;-81
2021/04/02 14:30:29;;;;;;;9.00;8.20;;;;;;;18.83;36.22;95493.81;5033569;28;20221;-80
2021/04/02 14:32:55;;;;;;;9.13;8.30;;;;;;;18.96;35.76;95485.72;5033321;28;20317;-81
2021/04/02 14:35:22;;;;;;;9.30;8.43;;;;;;;18.91;35.52;95482.22;5034465;28;20719;-80
2021/04/02 14:37:49;;;;;;;8.77;7.55;;;;;;;19.01;34.37;95485.03;5029425;28;20696;-82
2021/04/02 14:40:17;;;;;;;7.90;7.20;;;;;;;18.91;33.61;95477.00;5031088;28;20224;-82
2021/04/02 14:42:44;;;;;;;8.25;6.88;;;;;;;18.79;32.15;95484.88;5032589;28;20232;-81
2021/04/02 14:45:11;;;;;;;6.53;5.93;;;;;;;18.64;30.81;95479.34;5033404;28;20226;-83
2021/04/02 14:47:38;;;;;;;7.43;5.85;;;;;;;18.56;30.96;95482.25;5033281;28;20732;-82
2021/04/02 14:50:06;;;;;;;5.90;5.15;;;;;;;18.76;30.48;95477.50;5033899;28;20198;-83
2021/04/02 14:52:32;;;;;;;5.72;5.22;;;;;;;18.87;31.13;95470.66;5033819;28;20253;-83
2021/04/02 14:54:58;;;;;;;6.20;5.63;;;;;;;18.88;31.18;95472.25;5033157;28;20715;-83
2021/04/02 14:57:24;;;;;;;6.90;6.25;;;;;;;18.87;30.94;95474.06;5027157;28;20225;-82
2021/04/02 14:59:50;;;;;;;6.75;6.05;;;;;;;18.96;31.10;95471.88;5032222;28;20652;-80
2021/04/02 15:02:16;;;;;;;6.75;6.15;;;;;;;18.88;30.63;95473.03;5031060;28;20198;-80
2021/04/02 15:04:43;;;;;;;19.02;16.20;;;;;;;18.96;31.68;95462.25;5028205;28;20222;-82
2021/04/02 15:07:09;;;;;;;10.43;9.10;;;;;;;18.96;31.37;95462.25;5025584;28;20238;-83
2021/04/02 15:09:35;;;;;;;7.70;7.00;;;;;;;18.91;31.78;95458.75;5019264;28;20247;-83
2021/04/02 15:12:01;;;;;;;7.18;6.50;;;;;;;18.94;32.28;95455.66;5013310;28;20282;-83
2021/04/02 15:14:27;;;;;;;7.80;7.20;;;;;;;18.97;31.90;95466.44;5028025;28;20198;-83
2021/04/02 15:16:53;;;;;;;7.53;6.82;;;;;;;19.07;31.41;95458.00;5033092;28;20772;-82
2021/04/02 15:19:19;;;;;;;7.45;6.75;;;;;;;18.97;31.96;95465.66;5032174;28;20307;-83
2021/04/02 15:21:46;;;;;;;8.02;7.25;;;;;;;18.88;31.23;95470.44;5032207;28;20267;-82
2021/04/02 15:24:12;;;;;;;8.07;7.30;;;;;;;18.78;31.73;95469.44;5031599;28;20716;-82
2021/04/02 15:26:38;;;;;;;7.85;7.07;;;;;;;18.59;31.68;95466.97;5032075;28;20198;-82
2021/04/02 15:29:04;;;;;;;8.80;7.95;;;;;;;18.45;31.45;95462.22;5033194;28;20269;-82
2021/04/02 15:31:30;;;;;;;7.63;6.97;;;;;;;18.47;31.64;95471.38;5032221;28;20292;-82
2021/04/02 15:33:56;;;;;;;8.80;7.35;;;;;;;18.53;31.63;95460.03;5032784;28;20222;-82
2021/04/02 15:36:22;;;;;;;6.95;6.25;;;;;;;18.40;32.91;95459.50;5033136;28;20365;-81
2021/04/02 15:38:48;;;;;;;7.32;6.45;;;;;;;18.37;32.10;95452.91;5032390;28;20252;-82
2021/04/02 15:41:14;;;;;;;7.82;7.10;;;;;;;18.39;31.76;95452.69;5032401;28;20243;-81
2021/04/02 15:43:40;;;;;;;7.28;6.68;;;;;;;18.39;32.50;95457.91;5031434;28;20238;-80
2021/04/02 15:46:12;;;;;;;7.05;6.43;;;;;;;18.41;33.20;95459.25;5031518;28;20230;-79
2021/04/02 15:48:38;;;;;;;7.30;6.60;;;;;;;18.34;31.65;95452.56;5031946;28;20241;-81
2021/04/02 15:51:05;;;;;;;6.93;6.35;;;;;;;18.38;31.86;95451.88;5029171;28;20236;-82
2021/04/02 15:53:31;;;;;;;7.25;6.45;;;;;;;18.40;31.94;95447.25;5024249;28;20554;-82
2021/04/02 15:55:58;;;;;;;6.95;6.35;;;;;;;18.30;31.98;95449.63;5028464;28;20228;-81
2021/04/02 15:58:25;;;;;;;6.40;5.82;;;;;;;18.12;31.98;95453.13;5011409;28;20655;-82
2021/04/02 16:00:51;;;;;;;6.80;5.95;;;;;;;18.07;32.53;95454.84;5011792;28;20721;-82
2021/04/02 16:03:17;;;;;;;6.05;5.45;;;;;;;18.12;32.27;95465.38;5030886;28;20230;-81
2021/04/02 16:05:43;;;;;;;5.97;5.47;;;;;;;17.99;31.92;95455.97;5029989;28;20209;-82
2021/04/02 16:08:09;;;;;;;6.32;5.82;;;;;;;17.95;32.15;95454.81;5025479;28;20226;-81
2021/04/02 16:10:35;;;;;;;6.13;5.53;;;;;;;17.91;32.00;95462.28;5025288;28;20221;-81
2021/04/02 16:13:04;;;;;;;5.63;5.13;;;;;;;18.00;30.99;95462.78;5029958;28;20226;-82
2021/04/02 16:15:30;;;;;;;5.45;5.05;;;;;;;17.86;31.13;95464.81;5032562;28;20271;-80
2021/04/02 16:17:58;;;;;;;5.35;4.85;;;;;;;17.94;31.30;95471.47;5031508;28;20226;-82
2021/04/02 16:20:26;;;;;;;5.30;4.85;;;;;;;17.77;31.50;95473.16;5031732;28;20252;-82
2021/04/02 16:22:52;;;;;;;5.93;5.28;;;;;;;17.56;31.82;95467.41;5019441;28;20728;-81
2021/04/02 16:25:19;;;;;;;5.38;4.90;;;;;;;17.55;32.38;95470.22;5011128;28;20650;-83
2021/04/02 16:27:46;;;;;;;5.55;5.05;;;;;;;17.41;32.13;95472.25;5028379;28;20237;-83
2021/04/02 16:30:16;;;;;;;5.70;5.13;;;;;;;17.31;32.40;95461.59;5030532;28;20594;-83
2021/04/02 16:32:42;;;;;;;5.68;5.18;;;;;;;17.24;32.69;95471.28;5014106;28;20231;-83
2021/04/02 16:35:09;;;;;;;14.77;12.45;;;;;;;17.20;32.25;95478.72;5011218;28;20207;-84
2021/04/02 16:37:36;;;;;;;9.80;8.73;;;;;;;17.07;32.41;95468.50;5021864;28;20217;-82
2021/04/02 16:40:04;;;;;;;5.80;5.32;;;;;;;16.98;32.58;95472.41;5028450;28;20222;-83
2021/04/02 16:42:30;;;;;;;5.00;4.60;;;;;;;16.88;32.34;95479.94;5014164;28;20252;-83
2021/04/02 16:44:56;;;;;;;5.25;4.30;;;;;;;16.66;32.21;95470.97;5031329;28;20712;-84
2021/04/02 16:47:23;;;;;;;5.70;4.70;;;;;;;16.58;32.63;95482.41;5021571;28;20233;-83
2021/04/02 16:49:49;;;;;;;4.88;4.47;;;;;;;16.58;32.57;95478.00;5011023;28;20242;-83
2021/04/02 16:52:15;;;;;;;5.40;5.00;;;;;;;16.31;32.55;95481.09;5025268;28;20226;-82
2021/04/02 16:54:44;;;;;;;4.85;4.43;;;;;;;16.19;32.66;95481.00;5030198;28;20234;-82
2021/04/02 16:57:10;;;;;;;4.80;4.40;;;;;;;16.19;33.28;95486.97;5028168;28;20236;-81
2021/04/02 16:59:36;;;;;;;6.97;4.72;;;;;;;16.12;33.11;95488.88;5021092;28;20211;-81
2021/04/02 17:02:03;;;;;;;5.15;4.70;;;;;;;15.91;33.78;95502.22;5010814;28;20206;-82
2021/04/02 17:04:29;;;;;;;4.97;4.55;;;;;;;15.89;33.96;95501.63;5017673;28;20225;-82
2021/04/02 17:06:56;;;;;;;4.60;4.20;;;;;;;15.88;33.67;95502.63;5022777;28;20231;-81
2021/04/02 17:09:22;;;;;;;4.35;4.05;;;;;;;15.78;33.87;95495.31;5015817;28;20234;-82
2021/04/02 17:11:48;;;;;;;4.50;4.10;;;;;;;15.76;33.93;95504.34;5021431;28;20238;-83
2021/04/02 17:14:16;;;;;;;4.70;4.30;;;;;;;15.84;33.97;95502.25;5030157;28;20208;-83
2021/04/02 17:16:44;;;;;;;4.65;4.25;;;;;;;15.81;34.36;95512.25;5020085;28;20243;-82
2021/04/02 17:19:10;;;;;;;10.40;9.40;;;;;;;15.71;34.68;95514.53;5010143;28;20226;-82
2021/04/02 17:21:37;;;;;;;6.47;5.47;;;;;;;15.55;35.14;95513.22;5018079;28;20226;-83
2021/04/02 17:24:04;;;;;;;5.38;4.88;;;;;;;15.51;35.47;95518.03;5031050;28;20226;-83
2021/04/02 17:26:31;;;;;;;4.68;4.28;;;;;;;15.48;35.58;95521.03;5023509;28;20202;-82
2021/04/02 17:28:57;;;;;;;4.78;4.38;;;;;;;15.32;36.09;95528.50;5011405;28;20249;-83
2021/04/02 17:31:23;;;;;;;5.07;4.55;;;;;;;15.20;36.04;95520.59;5015692;28;20218;-83
2021/04/02 17:33:49;;;;;;;5.28;4.65;;;;;;;15.09;36.67;95526.41;5022151;28;20226;-83
2021/04/02 17:36:16;;;;;;;5.00;4.57;;;;;;;15.04;36.50;95539.19;5020360;28;20802;-83
2021/04/02 17:38:43;;;;;;;4.90;4.50;;;;;;;14.98;36.91;95543.41;5019495;28;20237;-83
2021/04/02 17:41:09;;;;;;;5.40;4.70;;;;;;;14.92;37.10;95554.59;5029244;28;20229;-82
2021/04/02 17:43:35;;;;;;;4.90;4.40;;;;;;;14.80;37.69;95558.81;5025699;28;20925;-82
2021/04/02 17:46:02;;;;;;;6.70;4.30;;;;;;;14.91;38.30;95554.78;5027796;28;20419;-83
2021/04/02 17:48:29;;;;;;;12.53;4.23;;;;;;;14.79;39.38;95563.19;5029522;28;20313;-83
2021/04/02 17:50:55;;;;;;;4.00;3.57;;;;;;;14.71;39.68;95572.97;5033058;28;20308;-83
2021/04/02 17:53:21;;;;;;;5.00;3.80;;;;;;;14.54;40.49;95584.75;5028590;28;20199;-83
2021/04/02 17:55:48;;;;;;;5.03;3.47;;;;;;;14.38;40.97;95591.91;5030426;28;20249;-83
2021/04/02 17:58:14;;;;;;;4.37;3.20;;;;;;;14.30;41.76;95601.66;5020196;28;20293;-83
2021/04/02 18:00:40;;;;;;;4.37;3.03;;;;;;;14.26;41.96;95611.63;5032801;28;20222;-82
2021/04/02 18:03:06;;;;;;;3.27;3.07;;;;;;;14.25;42.10;95611.81;5025145;28;20619;-83
2021/04/02 18:05:32;;;;;;;2.93;2.73;;;;;;;14.03;43.24;95611.22;5034485;28;20232;-83
2021/04/02 18:07:59;;;;;;;3.30;3.00;;;;;;;14.07;42.79;95615.78;5025694;28;20222;-83
2021/04/02 18:10:25;;;;;;;3.30;3.00;;;;;;;14.05;43.32;95616.97;5032250;28;20244;-82
2021/04/02 18:12:53;;;;;;;3.50;3.20;;;;;;;13.99;42.88;95622.94;5031797;28;20221;-83
2021/04/02 18:15:19;;;;;;;3.27;3.00;;;;;;;14.08;43.30;95629.53;5033573;28;20241;-82
2021/04/02 18:17:45;;;;;;;3.37;3.10;;;;;;;14.10;43.43;95635.31;5020832;28;20250;-83
2021/04/02 18:20:12;;;;;;;6.30;3.20;;;;;;;14.03;43.70;95635.31;5019475;28;20281;-83
2021/04/02 18:22:39;;;;;;;4.00;3.33;;;;;;;13.78;43.50;95645.41;5022315;28;20223;-83
2021/04/02 18:25:07;;;;;;;4.83;3.10;;;;;;;13.74;44.28;95639.00;5014727;28;20230;-82
2021/04/02 18:27:33;;;;;;;3.57;3.00;;;;;;;13.82;44.25;95648.41;5014842;28;20238;-83
2021/04/02 18:30:00;;;;;;;4.17;3.60;;;;;;;13.71;44.16;95648.94;5025154;28;20298;-84
2021/04/02 18:32:26;;;;;;;8.07;7.27;;;;;;;13.62;44.64;95652.72;5014330;28;20869;-83
2021/04/02 18:34:52;;;;;;;20.50;17.77;;;;;;;13.48;45.19;95675.91;5016517;28;20226;-82
2021/04/02 18:37:18;;;;;;;7.03;6.40;;;;;;;13.49;44.95;95669.75;5033025;28;20966;-83
2021/04/02 18:39:44;;;;;;;5.00;3.60;;;;;;;13.35;45.24;95670.69;5015197;28;20231;-83
2021/04/02 18:42:10;;;;;;;4.33;3.20;;;;;;;13.43;45.33;95678.31;5033860;28;20229;-83
2021/04/02 18:44:37;;;;;;;4.70;3.27;;;;;;;13.36;45.86;95680.03;5017034;28;20203;-83
2021/04/02 18:47:04;;;;;;;3.97;3.30;;;;;;;13.23;45.86;95676.59;5024995;28;20214;-82
2021/04/02 18:49:30;;;;;;;3.47;3.17;;;;;;;13.31;45.35;95681.59;5029835;28;20237;-83
2021/04/02 18:51:56;;;;;;;3.57;3.23;;;;;;;13.37;44.58;95684.22;5016397;28;20242;-83
2021/04/02 18:54:23;;;;;;;3.87;3.47;;;;;;;13.42;45.21;95692.22;5028593;28;20241;-82
2021/04/02 18:56:51;;;;;;;3.77;3.47;;;;;;;13.13;45.95;95698.38;5033441;28;20226;-83
2021/04/02 18:59:17;;;;;;;3.97;3.67;;;;;;;12.89;45.88;95696.25;5022109;28;20265;-82
2021/04/02 19:01:44;;;;;;;3.83;3.53;;;;;;;12.73;46.26;95702.47;5028219;28;20275;-83
2021/04/02 19:04:11;;;;;;;3.57;3.27;;;;;;;12.66;46.17;95698.25;5019714;28;20797;-81
2021/04/02 19:06:38;;;;;;;4.03;3.40;;;;;;;12.65;46.47;95694.06;5022377;28;20225;-82
2021/04/02 19:09:05;;;;;;;4.00;3.70;;;;;;;12.67;46.75;95699.84;5031882;28;20238;-82
2021/04/02 19:11:31;;;;;;;3.73;3.27;;;;;;;12.59;46.27;95705.94;5031303;28;20194;-81
2021/04/02 19:13:59;;;;;;;4.07;3.67;;;;;;;12.45;47.14;95702.44;5028732;28;20206;-82
2021/04/02 19:16:25;;;;;;;3.70;3.40;;;;;;;12.44;46.86;95700.03;5020751;28;20788;-85
2021/04/02 19:18:52;;;;;;;3.80;3.50;;;;;;;12.43;47.07;95698.44;5031836;28;20234;-77
2021/04/02 19:21:19;;;;;;;35.33;27.57;;;;;;;12.42;46.97;95699.41;5031332;28;20265;-80
2021/04/02 19:23:45;;;;;;;9.47;8.47;;;;;;;12.31;47.14;95697.34;5032032;28;20213;-81
2021/04/02 19:26:11;;;;;;;4.47;4.07;;;;;;;12.38;46.97;95698.19;5032453;28;20202;-80
2021/04/02 19:28:37;;;;;;;3.93;3.47;;;;;;;12.26;47.54;95699.66;5031354;28;20226;-81
2021/04/02 19:31:04;;;;;;;3.67;3.37;;;;;;;12.24;47.44;95699.84;5030637;28;21044;-84
2021/04/02 19:33:30;;;;;;;3.63;3.33;;;;;;;12.21;47.56;95696.81;5031894;28;20953;-84
2021/04/02 19:35:56;;;;;;;3.63;3.33;;;;;;;12.24;47.21;95691.28;5031865;28;20230;-84
2021/04/02 19:38:22;;;;;;;3.77;3.40;;;;;;;12.26;47.19;95694.50;5032006;28;20302;-82
2021/04/02 19:40:49;;;;;;;4.23;3.60;;;;;;;12.43;46.52;95688.91;5031054;28;20257;-83
2021/04/02 19:43:15;;;;;;;4.30;3.53;;;;;;;12.40;47.09;95686.69;5030506;28;20226;-81
2021/04/02 19:45:41;;;;;;;3.90;3.50;;;;;;;12.41;46.94;95690.88;5030627;28;20230;-84
2021/04/02 19:48:07;;;;;;;3.57;3.27;;;;;;;12.44;47.30;95687.13;5030987;28;20241;-83
2021/04/02 19:50:33;;;;;;;6.53;3.70;;;;;;;12.43;46.61;95688.09;5017639;28;20670;-83
2021/04/02 19:53:00;;;;;;;4.03;3.63;;;;;;;12.37;46.87;95688.84;5013430;28;20202;-83
2021/04/02 19:55:27;;;;;;;4.07;3.07;;;;;;;12.37;47.20;95681.09;5031359;28;20218;-81
2021/04/02 19:57:53;;;;;;;23.40;19.97;;;;;;;12.39;46.76;95684.28;5031066;28;20241;-84
2021/04/02 20:00:22;;;;;;;9.40;7.87;;;;;;;12.34;46.73;95682.25;5011304;28;20768;-84
2021/04/02 20:02:48;;;;;;;5.37;4.63;;;;;;;12.34;47.21;95684.84;5012797;28;20199;-82
2021/04/02 20:05:15;;;;;;;4.33;3.97;;;;;;;12.35;46.63;95690.78;5028452;28;20203;-81
2021/04/02 20:07:42;;;;;;;4.23;3.87;;;;;;;12.28;46.82;95689.94;5022515;28;20244;-81
2021/04/02 20:10:12;;;;;;;4.67;4.17;;;;;;;12.24;47.33;95696.47;5030083;28;20226;-83
2021/04/02 20:12:39;;;;;;;4.40;4.00;;;;;;;12.01;47.84;95684.50;5030793;28;20234;-84